sensor_id;sensor_type;location;lat;lon;timestamp;pressure;altitude;pressure_sealevel;temperature;humidity
8697;BME280;4385;48.848;8.924;2023-06-26T00:00:27;97355.19;;;24.88;100.00
8697;BME280;4385;48.848;8.924;2023-06-26T00:02:53;97355.19;;;24.88;100.00
8697;BME280;4385;48.848;8.924;2023-06-26T00:05:18;97353.53;;;24.87;100.00
8697;BME280;4385;48.848;8.924;2023-06-26T00:07:43;97351.84;;;24.86;100.00
8697;BME280;4385;48.848;8.924;2023-06-26T00:10:09;97348.38;;;24.87;100.00
8697;BME280;4385;48.848;8.924;2023-06-26T00:12:34;97358.69;;;24.87;100.00
8697;BME280;4385;48.848;8.924;2023-06-26T00:15:00;97351.03;;;24.85;100.00
8697;BME280;4385;48.848;8.924;2023-06-26T00:17:25;97355.34;;;24.85;100.00
8697;BME280;4385;48.848;8.924;2023-06-26T00:19:51;97360.50;;;24.85;100.00
8697;BME280;4385;48.848;8.924;2023-06-26T00:22:16;97355.34;;;24.85;100.00
8697;BME280;4385;48.848;8.924;2023-06-26T00:24:41;97348.53;;;24.84;100.00
8697;BME280;4385;48.848;8.924;2023-06-26T00:27:07;97352.00;;;24.83;100.00
8697;BME280;4385;48.848;8.924;2023-06-26T00:29:32;97358.84;;;24.84;100.00
8697;BME280;4385;48.848;8.924;2023-06-26T00:31:58;97353.69;;;24.84;100.00
8697;BME280;4385;48.848;8.924;2023-06-26T00:34:23;97354.59;;;24.83;100.00
8697;BME280;4385;48.848;8.924;2023-06-26T00:36:48;97353.69;;;24.84;100.00
8697;BME280;4385;48.848;8.924;2023-06-26T00:39:14;97357.16;;;24.83;100.00
8697;BME280;4385;48.848;8.924;2023-06-26T00:41:39;97355.50;;;24.82;100.00
8697;BME280;4385;48.848;8.924;2023-06-26T00:44:05;97350.34;;;24.82;100.00
8697;BME280;4385;48.848;8.924;2023-06-26T00:46:31;97355.50;;;24.82;100.00
8697;BME280;4385;48.848;8.924;2023-06-26T00:48:59;97355.50;;;24.82;100.00
8697;BME280;4385;48.848;8.924;2023-06-26T00:51:28;97352.09;;;24.81;100.00
8697;BME280;4385;48.848;8.924;2023-06-26T00:53:54;97353.84;;;24.81;100.00
8697;BME280;4385;48.848;8.924;2023-06-26T00:56:19;97347.94;;;24.78;100.00
8697;BME280;4385;48.848;8.924;2023-06-26T00:58:45;97351.34;;;24.79;100.00
8697;BME280;4385;48.848;8.924;2023-06-26T01:01:11;97349.66;;;24.78;100.00
8697;BME280;4385;48.848;8.924;2023-06-26T01:03:39;97347.16;;;24.76;100.00
8697;BME280;4385;48.848;8.924;2023-06-26T01:06:05;97351.50;;;24.76;100.00
8697;BME280;4385;48.848;8.924;2023-06-26T01:08:30;97348.09;;;24.75;100.00
8697;BME280;4385;48.848;8.924;2023-06-26T01:10:56;97353.25;;;24.75;100.00
8697;BME280;4385;48.848;8.924;2023-06-26T01:13:22;97346.34;;;24.76;100.00
8697;BME280;4385;48.848;8.924;2023-06-26T01:15:48;97346.34;;;24.76;100.00
8697;BME280;4385;48.848;8.924;2023-06-26T01:18:13;97345.50;;;24.75;100.00
8697;BME280;4385;48.848;8.924;2023-06-26T01:20:41;97346.34;;;24.76;100.00
8697;BME280;4385;48.848;8.924;2023-06-26T01:23:12;97347.16;;;24.76;100.00
8697;BME280;4385;48.848;8.924;2023-06-26T01:28:33;97339.44;;;24.76;100.00
8697;BME280;4385;48.848;8.924;2023-06-26T01:31:00;97336.88;;;24.76;100.00
8697;BME280;4385;48.848;8.924;2023-06-26T01:33:26;97341.13;;;24.77;100.00
8697;BME280;4385;48.848;8.924;2023-06-26T01:35:52;97336.88;;;24.76;100.00
8697;BME280;4385;48.848;8.924;2023-06-26T01:38:19;97336.88;;;24.76;100.00
8697;BME280;4385;48.848;8.924;2023-06-26T01:40:45;97331.72;;;24.76;100.00
8697;BME280;4385;48.848;8.924;2023-06-26T01:43:28;97330.81;;;24.77;100.00
8697;BME280;4385;48.848;8.924;2023-06-26T01:45:59;97327.31;;;24.78;100.00
8697;BME280;4385;48.848;8.924;2023-06-26T01:48:33;97316.19;;;24.78;100.00
8697;BME280;4385;48.848;8.924;2023-06-26T01:50:59;97321.31;;;24.78;100.00
8697;BME280;4385;48.848;8.924;2023-06-26T01:53:32;97322.25;;;24.77;100.00
8697;BME280;4385;48.848;8.924;2023-06-26T01:56:06;97317.00;;;24.78;100.00
8697;BME280;4385;48.848;8.924;2023-06-26T01:58:33;97321.31;;;24.78;100.00
8697;BME280;4385;48.848;8.924;2023-06-26T02:01:00;97315.28;;;24.79;100.00
8697;BME280;4385;48.848;8.924;2023-06-26T02:03:25;97328.09;;;24.81;100.00
8697;BME280;4385;48.848;8.924;2023-06-26T02:05:51;97320.19;;;24.84;100.00
8697;BME280;4385;48.848;8.924;2023-06-26T02:08:17;97319.44;;;24.82;100.00
8697;BME280;4385;48.848;8.924;2023-06-26T02:10:42;97318.66;;;24.79;100.00
8697;BME280;4385;48.848;8.924;2023-06-26T02:13:07;97317.00;;;24.78;100.00
8697;BME280;4385;48.848;8.924;2023-06-26T02:15:33;97331.63;;;24.78;100.00
8697;BME280;4385;48.848;8.924;2023-06-26T02:17:58;97323.97;;;24.76;100.00
8697;BME280;4385;48.848;8.924;2023-06-26T02:20:23;97330.06;;;24.75;100.00
8697;BME280;4385;48.848;8.924;2023-06-26T02:22:48;97333.56;;;24.74;100.00
8697;BME280;4385;48.848;8.924;2023-06-26T02:25:14;97326.72;;;24.73;100.00
8697;BME280;4385;48.848;8.924;2023-06-26T02:27:39;97325.97;;;24.71;100.00
8697;BME280;4385;48.848;8.924;2023-06-26T02:30:05;97334.53;;;24.72;100.00
8697;BME280;4385;48.848;8.924;2023-06-26T02:32:31;97325.22;;;24.69;100.00
8697;BME280;4385;48.848;8.924;2023-06-26T02:34:56;97328.63;;;24.70;100.00
8697;BME280;4385;48.848;8.924;2023-06-26T02:37:21;97329.53;;;24.69;100.00
8697;BME280;4385;48.848;8.924;2023-06-26T02:39:46;97323.56;;;24.68;100.00
8697;BME280;4385;48.848;8.924;2023-06-26T02:42:12;97323.56;;;24.68;100.00
8697;BME280;4385;48.848;8.924;2023-06-26T02:44:37;97323.56;;;24.68;100.00
8697;BME280;4385;48.848;8.924;2023-06-26T02:47:02;97324.38;;;24.69;100.00
8697;BME280;4385;48.848;8.924;2023-06-26T02:49:28;97326.13;;;24.68;100.00
8697;BME280;4385;48.848;8.924;2023-06-26T02:51:53;97326.94;;;24.69;100.00
8697;BME280;4385;48.848;8.924;2023-06-26T02:54:18;97325.22;;;24.69;100.00
8697;BME280;4385;48.848;8.924;2023-06-26T02:56:44;97329.53;;;24.69;100.00
8697;BME280;4385;48.848;8.924;2023-06-26T02:59:09;97333.88;;;24.68;100.00
8697;BME280;4385;48.848;8.924;2023-06-26T03:01:34;97322.72;;;24.68;100.00
8697;BME280;4385;48.848;8.924;2023-06-26T03:03:59;97333.94;;;24.66;100.00
8697;BME280;4385;48.848;8.924;2023-06-26T03:06:26;97327.94;;;24.66;100.00
8697;BME280;4385;48.848;8.924;2023-06-26T03:08:53;97330.69;;;24.63;100.00
8697;BME280;4385;48.848;8.924;2023-06-26T03:11:19;97326.38;;;24.63;100.00
8697;BME280;4385;48.848;8.924;2023-06-26T03:13:44;97332.41;;;24.62;100.00
8697;BME280;4385;48.848;8.924;2023-06-26T03:16:09;97341.06;;;24.61;100.00
8697;BME280;4385;48.848;8.924;2023-06-26T03:18:34;97329.03;;;24.62;100.00
8697;BME280;4385;48.848;8.924;2023-06-26T03:21:00;97329.84;;;24.62;100.00
8697;BME280;4385;48.848;8.924;2023-06-26T03:23:25;97329.84;;;24.62;100.00
8697;BME280;4385;48.848;8.924;2023-06-26T03:25:51;97340.97;;;24.63;100.00
8697;BME280;4385;48.848;8.924;2023-06-26T03:28:16;97335.84;;;24.63;100.00
8697;BME280;4385;48.848;8.924;2023-06-26T03:30:42;97333.25;;;24.63;100.00
8697;BME280;4385;48.848;8.924;2023-06-26T03:33:07;97334.19;;;24.62;100.00
8697;BME280;4385;48.848;8.924;2023-06-26T03:35:33;97325.59;;;24.61;100.00
8697;BME280;4385;48.848;8.924;2023-06-26T03:37:58;97337.63;;;24.61;100.00
8697;BME280;4385;48.848;8.924;2023-06-26T03:40:24;97343.72;;;24.60;100.00
8697;BME280;4385;48.848;8.924;2023-06-26T03:42:49;97341.13;;;24.60;100.00
8697;BME280;4385;48.848;8.924;2023-06-26T03:45:15;97338.63;;;24.58;100.00
8697;BME280;4385;48.848;8.924;2023-06-26T03:47:40;97344.63;;;24.59;100.00
8697;BME280;4385;48.848;8.924;2023-06-26T03:50:05;97332.66;;;24.58;100.00
8697;BME280;4385;48.848;8.924;2023-06-26T03:52:31;97333.56;;;24.57;100.00
8697;BME280;4385;48.848;8.924;2023-06-26T03:54:59;97341.28;;;24.57;100.00
8697;BME280;4385;48.848;8.924;2023-06-26T03:57:25;97332.78;;;24.54;100.00
8697;BME280;4385;48.848;8.924;2023-06-26T03:59:51;97336.28;;;24.53;100.00
8697;BME280;4385;48.848;8.924;2023-06-26T04:02:16;97337.22;;;24.52;100.00
8697;BME280;4385;48.848;8.924;2023-06-26T04:04:42;97338.09;;;24.51;100.00
8697;BME280;4385;48.848;8.924;2023-06-26T04:07:07;97335.59;;;24.50;100.00
8697;BME280;4385;48.848;8.924;2023-06-26T04:09:32;97333.09;;;24.48;100.00
8697;BME280;4385;48.848;8.924;2023-06-26T04:11:58;97341.75;;;24.47;100.00
8697;BME280;4385;48.848;8.924;2023-06-26T04:14:23;97336.59;;;24.47;100.00
8697;BME280;4385;48.848;8.924;2023-06-26T04:16:48;97341.75;;;24.47;100.00
8697;BME280;4385;48.848;8.924;2023-06-26T04:19:13;97344.31;;;24.47;100.00
8697;BME280;4385;48.848;8.924;2023-06-26T04:21:39;97346.06;;;24.47;100.00
8697;BME280;4385;48.848;8.924;2023-06-26T04:24:05;97345.25;;;24.46;100.00
8697;BME280;4385;48.848;8.924;2023-06-26T04:26:30;97337.50;;;24.46;100.00
8697;BME280;4385;48.848;8.924;2023-06-26T04:28:55;97342.66;;;24.46;100.00
8697;BME280;4385;48.848;8.924;2023-06-26T04:31:21;97340.91;;;24.47;100.00
8697;BME280;4385;48.848;8.924;2023-06-26T04:33:47;97339.16;;;24.47;100.00
8697;BME280;4385;48.848;8.924;2023-06-26T04:36:16;97341.75;;;24.47;100.00
8697;BME280;4385;48.848;8.924;2023-06-26T04:38:42;97345.25;;;24.46;100.00
8697;BME280;4385;48.848;8.924;2023-06-26T04:41:07;97337.50;;;24.46;100.00
8697;BME280;4385;48.848;8.924;2023-06-26T04:43:32;97337.50;;;24.46;100.00
8697;BME280;4385;48.848;8.924;2023-06-26T04:45:58;97335.81;;;24.45;100.00
8697;BME280;4385;48.848;8.924;2023-06-26T04:48:23;97330.75;;;24.44;100.00
8697;BME280;4385;48.848;8.924;2023-06-26T04:50:48;97329.94;;;24.43;100.00
8697;BME280;4385;48.848;8.924;2023-06-26T04:53:19;97335.97;;;24.42;100.00
8697;BME280;4385;48.848;8.924;2023-06-26T04:55:44;97332.44;;;24.45;100.00
8697;BME280;4385;48.848;8.924;2023-06-26T04:58:09;97332.44;;;24.45;100.00
8697;BME280;4385;48.848;8.924;2023-06-26T05:00:34;97330.59;;;24.47;100.00
8697;BME280;4385;48.848;8.924;2023-06-26T05:03:01;97322.00;;;24.48;100.00
8697;BME280;4385;48.848;8.924;2023-06-26T05:05:29;97334.78;;;24.49;100.00
8697;BME280;4385;48.848;8.924;2023-06-26T05:07:55;97323.56;;;24.50;100.00
8697;BME280;4385;48.848;8.924;2023-06-26T05:10:21;97329.47;;;24.52;100.00
8697;BME280;4385;48.848;8.924;2023-06-26T05:12:47;97327.72;;;24.53;100.00
8697;BME280;4385;48.848;8.924;2023-06-26T05:15:12;97331.13;;;24.53;100.00
8697;BME280;4385;48.848;8.924;2023-06-26T05:17:37;97329.41;;;24.54;100.00
8697;BME280;4385;48.848;8.924;2023-06-26T05:20:03;97322.50;;;24.54;100.00
8697;BME280;4385;48.848;8.924;2023-06-26T05:22:34;97334.47;;;24.56;100.00
8697;BME280;4385;48.848;8.924;2023-06-26T05:25:04;97324.19;;;24.56;100.00
8697;BME280;4385;48.848;8.924;2023-06-26T05:27:30;97330.97;;;24.57;100.00
8697;BME280;4385;48.848;8.924;2023-06-26T05:29:55;97333.47;;;24.58;100.00
8697;BME280;4385;48.848;8.924;2023-06-26T05:32:21;97335.97;;;24.60;100.00
8697;BME280;4385;48.848;8.924;2023-06-26T05:34:47;97330.84;;;24.60;100.00
8697;BME280;4385;48.848;8.924;2023-06-26T05:37:21;97334.97;;;24.62;100.00
8697;BME280;4385;48.848;8.924;2023-06-26T05:39:47;97333.03;;;24.68;100.00
8697;BME280;4385;48.848;8.924;2023-06-26T05:42:13;97328.31;;;24.76;100.00
8697;BME280;4385;48.848;8.924;2023-06-26T05:44:38;97328.25;;;24.77;100.00
8697;BME280;4385;48.848;8.924;2023-06-26T05:47:04;97322.94;;;24.81;100.00
8697;BME280;4385;48.848;8.924;2023-06-26T05:49:29;97329.59;;;24.85;100.00
8697;BME280;4385;48.848;8.924;2023-06-26T05:51:55;97328.53;;;24.89;100.00
8697;BME280;4385;48.848;8.924;2023-06-26T05:54:20;97325.00;;;24.92;100.00
8697;BME280;4385;48.848;8.924;2023-06-26T05:56:47;97326.56;;;24.94;100.00
8697;BME280;4385;48.848;8.924;2023-06-26T05:59:14;97322.19;;;24.96;100.00
8697;BME280;4385;48.848;8.924;2023-06-26T06:01:40;97325.50;;;24.98;100.00
8697;BME280;4385;48.848;8.924;2023-06-26T06:04:05;97326.25;;;25.00;100.00
8697;BME280;4385;48.848;8.924;2023-06-26T06:06:31;97326.16;;;25.02;100.00
8697;BME280;4385;48.848;8.924;2023-06-26T06:08:56;97328.66;;;25.03;100.00
8697;BME280;4385;48.848;8.924;2023-06-26T06:11:21;97328.66;;;25.03;100.00
8697;BME280;4385;48.848;8.924;2023-06-26T06:13:47;97333.75;;;25.05;100.00
8697;BME280;4385;48.848;8.924;2023-06-26T06:16:13;97336.16;;;25.08;100.00
8697;BME280;4385;48.848;8.924;2023-06-26T06:18:38;97332.66;;;25.09;100.00
8697;BME280;4385;48.848;8.924;2023-06-26T06:21:03;97330.84;;;25.11;100.00
8697;BME280;4385;48.848;8.924;2023-06-26T06:23:29;97335.06;;;25.12;100.00
8697;BME280;4385;48.848;8.924;2023-06-26T06:25:54;97337.56;;;25.14;100.00
8697;BME280;4385;48.848;8.924;2023-06-26T06:28:19;97340.91;;;25.16;100.00
8697;BME280;4385;48.848;8.924;2023-06-26T06:30:44;97343.50;;;25.16;100.00
8697;BME280;4385;48.848;8.924;2023-06-26T06:33:12;97341.69;;;25.18;100.00
8697;BME280;4385;48.848;8.924;2023-06-26T06:35:37;97339.09;;;25.18;100.00
8697;BME280;4385;48.848;8.924;2023-06-26T06:38:02;97338.09;;;25.21;100.00
8697;BME280;4385;48.848;8.924;2023-06-26T06:40:28;97334.50;;;25.23;100.00
8697;BME280;4385;48.848;8.924;2023-06-26T06:42:53;97341.44;;;25.23;100.00
8697;BME280;4385;48.848;8.924;2023-06-26T06:45:18;97343.16;;;25.22;100.00
8697;BME280;4385;48.848;8.924;2023-06-26T06:47:43;97339.69;;;25.23;100.00
8697;BME280;4385;48.848;8.924;2023-06-26T06:50:09;97344.75;;;25.25;100.00
8697;BME280;4385;48.848;8.924;2023-06-26T06:52:38;97342.16;;;25.25;100.00
8697;BME280;4385;48.848;8.924;2023-06-26T06:55:05;97344.84;;;25.23;100.00
8697;BME280;4385;48.848;8.924;2023-06-26T06:57:37;97349.00;;;25.26;100.00
8697;BME280;4385;48.848;8.924;2023-06-26T07:00:08;97345.66;;;25.24;100.00
8697;BME280;4385;48.848;8.924;2023-06-26T07:02:35;97346.50;;;25.24;100.00
8697;BME280;4385;48.848;8.924;2023-06-26T07:05:01;97334.34;;;25.26;100.00
8697;BME280;4385;48.848;8.924;2023-06-26T07:07:30;97336.03;;;25.27;100.00
8697;BME280;4385;48.848;8.924;2023-06-26T07:10:18;97334.09;;;25.31;100.00
8697;BME280;4385;48.848;8.924;2023-06-26T07:12:43;97335.56;;;25.37;100.00
8697;BME280;4385;48.848;8.924;2023-06-26T07:15:10;97336.34;;;25.37;100.00
8697;BME280;4385;48.848;8.924;2023-06-26T07:17:35;97334.47;;;25.41;100.00
8697;BME280;4385;48.848;8.924;2023-06-26T07:20:03;97336.03;;;25.44;100.00
8697;BME280;4385;48.848;8.924;2023-06-26T07:22:31;97336.53;;;25.50;100.00
8697;BME280;4385;48.848;8.924;2023-06-26T07:24:56;97337.22;;;25.54;100.00
8697;BME280;4385;48.848;8.924;2023-06-26T07:27:22;97338.72;;;25.58;100.00
8697;BME280;4385;48.848;8.924;2023-06-26T07:29:47;97339.41;;;25.62;100.00
8697;BME280;4385;48.848;8.924;2023-06-26T07:32:12;97341.66;;;25.68;100.00
8697;BME280;4385;48.848;8.924;2023-06-26T07:34:38;97333.00;;;25.69;100.00
8697;BME280;4385;48.848;8.924;2023-06-26T07:37:03;97337.06;;;25.73;100.00
8697;BME280;4385;48.848;8.924;2023-06-26T07:39:29;97339.66;;;25.73;100.00
8697;BME280;4385;48.848;8.924;2023-06-26T07:41:54;97342.06;;;25.76;100.00
8697;BME280;4385;48.848;8.924;2023-06-26T07:44:19;97342.81;;;25.78;100.00
8697;BME280;4385;48.848;8.924;2023-06-26T07:46:45;97344.31;;;25.83;100.00
8697;BME280;4385;48.848;8.924;2023-06-26T07:49:11;97338.25;;;25.84;100.00
8697;BME280;4385;48.848;8.924;2023-06-26T07:51:36;97341.56;;;25.86;100.00
8697;BME280;4385;48.848;8.924;2023-06-26T07:54:02;97342.22;;;25.89;100.00
8697;BME280;4385;48.848;8.924;2023-06-26T07:56:27;97349.03;;;25.90;100.00
8697;BME280;4385;48.848;8.924;2023-06-26T07:58:52;97344.72;;;25.91;100.00
8697;BME280;4385;48.848;8.924;2023-06-26T08:01:18;97342.97;;;25.92;100.00
8697;BME280;4385;48.848;8.924;2023-06-26T08:03:43;97340.31;;;25.93;100.00
8697;BME280;4385;48.848;8.924;2023-06-26T08:06:08;97341.88;;;25.96;100.00
8697;BME280;4385;48.848;8.924;2023-06-26T08:08:34;97340.06;;;25.98;100.00
8697;BME280;4385;48.848;8.924;2023-06-26T08:10:59;97340.78;;;26.00;100.00
8697;BME280;4385;48.848;8.924;2023-06-26T08:13:25;97344.22;;;26.00;100.00
8697;BME280;4385;48.848;8.924;2023-06-26T08:15:50;97342.38;;;26.02;100.00
8697;BME280;4385;48.848;8.924;2023-06-26T08:18:15;97347.38;;;26.06;100.00
8697;BME280;4385;48.848;8.924;2023-06-26T08:20:40;97346.44;;;26.07;100.00
8697;BME280;4385;48.848;8.924;2023-06-26T08:23:06;97340.34;;;26.08;100.00
8697;BME280;4385;48.848;8.924;2023-06-26T08:25:31;97346.34;;;26.08;100.00
8697;BME280;4385;48.848;8.924;2023-06-26T08:27:57;97339.47;;;26.09;100.00
8697;BME280;4385;48.848;8.924;2023-06-26T08:30:22;97338.53;;;26.10;100.00
8697;BME280;4385;48.848;8.924;2023-06-26T08:32:50;97335.84;;;26.11;100.00
8697;BME280;4385;48.848;8.924;2023-06-26T08:35:16;97333.38;;;26.10;100.00
8697;BME280;4385;48.848;8.924;2023-06-26T08:37:41;97334.03;;;26.13;100.00
8697;BME280;4385;48.848;8.924;2023-06-26T08:40:07;97333.19;;;26.13;100.00
8697;BME280;4385;48.848;8.924;2023-06-26T08:42:32;97332.34;;;26.12;100.00
8697;BME280;4385;48.848;8.924;2023-06-26T08:44:58;97332.25;;;26.14;100.00
8697;BME280;4385;48.848;8.924;2023-06-26T08:47:23;97338.19;;;26.16;100.00
8697;BME280;4385;48.848;8.924;2023-06-26T08:49:56;97332.84;;;26.19;100.00
8697;BME280;4385;48.848;8.924;2023-06-26T08:52:36;97338.00;;;26.19;100.00
8697;BME280;4385;48.848;8.924;2023-06-26T08:55:06;97336.34;;;26.18;100.00
8697;BME280;4385;48.848;8.924;2023-06-26T08:57:33;97338.19;;;26.16;100.00
8697;BME280;4385;48.848;8.924;2023-06-26T08:59:59;97337.34;;;26.15;100.00
8697;BME280;4385;48.848;8.924;2023-06-26T09:02:25;97334.84;;;26.14;100.00
8697;BME280;4385;48.848;8.924;2023-06-26T09:04:50;97331.53;;;26.12;100.00
8697;BME280;4385;48.848;8.924;2023-06-26T09:07:16;97340.25;;;26.09;100.00
8697;BME280;4385;48.848;8.924;2023-06-26T09:09:42;97335.38;;;26.05;100.00
8697;BME280;4385;48.848;8.924;2023-06-26T09:12:08;97334.63;;;26.02;100.00
8697;BME280;4385;48.848;8.924;2023-06-26T09:14:34;97335.72;;;25.98;100.00
8697;BME280;4385;48.848;8.924;2023-06-26T09:17:00;97337.56;;;25.96;100.00
8697;BME280;4385;48.848;8.924;2023-06-26T09:19:26;97345.56;;;25.92;100.00
8697;BME280;4385;48.848;8.924;2023-06-26T09:21:52;97341.38;;;25.89;100.00
8697;BME280;4385;48.848;8.924;2023-06-26T09:24:17;97339.72;;;25.88;100.00
8697;BME280;4385;48.848;8.924;2023-06-26T09:26:43;97345.06;;;25.85;100.00
8697;BME280;4385;48.848;8.924;2023-06-26T09:29:09;97344.22;;;25.84;100.00
8697;BME280;4385;48.848;8.924;2023-06-26T09:31:39;97342.66;;;25.82;100.00
8697;BME280;4385;48.848;8.924;2023-06-26T09:34:05;97353.13;;;25.78;100.00
8697;BME280;4385;48.848;8.924;2023-06-26T09:36:31;97349.81;;;25.76;100.00
8697;BME280;4385;48.848;8.924;2023-06-26T09:39:05;97354.16;;;25.76;100.00
8697;BME280;4385;48.848;8.924;2023-06-26T09:41:34;97359.38;;;25.74;100.00
8697;BME280;4385;48.848;8.924;2023-06-26T09:44:01;97356.06;;;25.72;100.00
8697;BME280;4385;48.848;8.924;2023-06-26T09:46:29;97358.72;;;25.71;100.00
8697;BME280;4385;48.848;8.924;2023-06-26T09:51:24;97349.25;;;25.71;100.00
8697;BME280;4385;48.848;8.924;2023-06-26T09:53:49;97353.63;;;25.69;100.00
8697;BME280;4385;48.848;8.924;2023-06-26T09:56:17;97356.22;;;25.69;100.00
8697;BME280;4385;48.848;8.924;2023-06-26T09:58:43;97354.41;;;25.71;100.00
8697;BME280;4385;48.848;8.924;2023-06-26T10:01:09;97352.72;;;25.70;100.00
8697;BME280;4385;48.848;8.924;2023-06-26T10:03:35;97363.03;;;25.70;100.00
8697;BME280;4385;48.848;8.924;2023-06-26T10:06:02;97365.63;;;25.70;100.00
8697;BME280;4385;48.848;8.924;2023-06-26T10:08:28;97371.69;;;25.69;100.00
8697;BME280;4385;48.848;8.924;2023-06-26T10:10:53;97370.03;;;25.68;100.00
8697;BME280;4385;48.848;8.924;2023-06-26T10:13:37;97367.56;;;25.67;100.00
8697;BME280;4385;48.848;8.924;2023-06-26T10:16:06;97366.88;;;25.63;100.00
8697;BME280;4385;48.848;8.924;2023-06-26T10:18:32;97374.63;;;25.63;100.00
8697;BME280;4385;48.848;8.924;2023-06-26T10:21:01;97368.63;;;25.62;100.00
8697;BME280;4385;48.848;8.924;2023-06-26T10:23:29;97372.03;;;25.63;100.00
8697;BME280;4385;48.848;8.924;2023-06-26T10:25:58;97380.69;;;25.62;100.00
8697;BME280;4385;48.848;8.924;2023-06-26T10:28:27;97381.59;;;25.61;100.00
8697;BME280;4385;48.848;8.924;2023-06-26T10:30:54;97381.59;;;25.61;100.00
8697;BME280;4385;48.848;8.924;2023-06-26T10:33:20;97391.03;;;25.62;100.00
8697;BME280;4385;48.848;8.924;2023-06-26T10:35:46;97384.94;;;25.63;100.00
8697;BME280;4385;48.848;8.924;2023-06-26T10:38:11;97392.69;;;25.63;100.00
8697;BME280;4385;48.848;8.924;2023-06-26T10:40:45;97389.16;;;25.64;100.00
8697;BME280;4385;48.848;8.924;2023-06-26T10:43:12;97390.94;;;25.63;100.00
8697;BME280;4385;48.848;8.924;2023-06-26T10:45:46;97384.94;;;25.63;100.00
8697;BME280;4385;48.848;8.924;2023-06-26T10:48:15;97396.91;;;25.64;100.00
8697;BME280;4385;48.848;8.924;2023-06-26T10:50:40;97393.59;;;25.62;100.00
8697;BME280;4385;48.848;8.924;2023-06-26T10:55:58;97392.69;;;25.63;100.00
8697;BME280;4385;48.848;8.924;2023-06-26T11:03:37;97397.84;;;25.63;100.00
8697;BME280;4385;48.848;8.924;2023-06-26T11:06:09;97406.41;;;25.63;100.00
8697;BME280;4385;48.848;8.924;2023-06-26T11:11:10;97393.53;;;25.63;100.00
8697;BME280;4385;48.848;8.924;2023-06-26T11:13:35;97393.53;;;25.63;100.00
8697;BME280;4385;48.848;8.924;2023-06-26T11:16:01;97391.91;;;25.61;100.00
8697;BME280;4385;48.848;8.924;2023-06-26T11:18:27;97393.59;;;25.62;100.00
8697;BME280;4385;48.848;8.924;2023-06-26T11:20:53;97397.00;;;25.62;100.00
8697;BME280;4385;48.848;8.924;2023-06-26T11:23:22;97394.41;;;25.62;100.00
8697;BME280;4385;48.848;8.924;2023-06-26T11:25:52;97396.91;;;25.64;100.00
8697;BME280;4385;48.848;8.924;2023-06-26T11:28:21;97399.50;;;25.64;100.00
8697;BME280;4385;48.848;8.924;2023-06-26T11:30:46;97420.13;;;25.64;100.00
8697;BME280;4385;48.848;8.924;2023-06-26T11:33:11;97423.56;;;25.64;100.00
8697;BME280;4385;48.848;8.924;2023-06-26T11:35:36;97424.41;;;25.65;100.00
8697;BME280;4385;48.848;8.924;2023-06-26T11:38:03;97433.78;;;25.66;100.00
8697;BME280;4385;48.848;8.924;2023-06-26T11:40:32;97428.72;;;25.64;100.00
8697;BME280;4385;48.848;8.924;2023-06-26T11:42:59;97438.19;;;25.64;100.00
8697;BME280;4385;48.848;8.924;2023-06-26T11:45:28;97444.13;;;25.66;100.00
8697;BME280;4385;48.848;8.924;2023-06-26T11:47:55;97440.53;;;25.69;100.00
8697;BME280;4385;48.848;8.924;2023-06-26T11:50:22;97442.88;;;25.73;100.00
8697;BME280;4385;48.848;8.924;2023-06-26T11:52:53;97441.97;;;25.74;100.00
8697;BME280;4385;48.848;8.924;2023-06-26T11:55:19;97443.63;;;25.75;100.00
8697;BME280;4385;48.848;8.924;2023-06-26T11:57:49;97444.47;;;25.76;100.00
8697;BME280;4385;48.848;8.924;2023-06-26T12:00:16;97446.97;;;25.77;100.00
8697;BME280;4385;48.848;8.924;2023-06-26T12:02:43;97450.28;;;25.80;100.00
8697;BME280;4385;48.848;8.924;2023-06-26T12:05:09;97447.53;;;25.83;100.00
8697;BME280;4385;48.848;8.924;2023-06-26T12:07:35;97440.56;;;25.85;100.00
8697;BME280;4385;48.848;8.924;2023-06-26T12:10:02;97427.47;;;25.88;100.00
8697;BME280;4385;48.848;8.924;2023-06-26T12:12:28;97428.25;;;25.90;100.00
8697;BME280;4385;48.848;8.924;2023-06-26T12:14:53;97445.13;;;25.96;100.00
8697;BME280;4385;48.848;8.924;2023-06-26T12:17:22;97437.16;;;26.00;100.00
8697;BME280;4385;48.848;8.924;2023-06-26T12:19:48;97426.47;;;26.07;100.00
8697;BME280;4385;48.848;8.924;2023-06-26T12:22:14;97426.22;;;26.11;100.00
8697;BME280;4385;48.848;8.924;2023-06-26T12:24:40;97425.13;;;26.15;100.00
8697;BME280;4385;48.848;8.924;2023-06-26T12:27:17;97422.38;;;26.19;100.00
8697;BME280;4385;48.848;8.924;2023-06-26T12:29:53;97426.56;;;26.21;100.00
8697;BME280;4385;48.848;8.924;2023-06-26T12:32:19;97441.97;;;26.23;100.00
8697;BME280;4385;48.848;8.924;2023-06-26T12:34:48;97435.97;;;26.22;100.00
8697;BME280;4385;48.848;8.924;2023-06-26T12:37:14;97438.47;;;26.24;100.00
8697;BME280;4385;48.848;8.924;2023-06-26T12:39:55;97440.97;;;26.25;100.00
8697;BME280;4385;48.848;8.924;2023-06-26T12:42:26;97441.63;;;26.29;100.00
8697;BME280;4385;48.848;8.924;2023-06-26T12:44:52;97444.88;;;26.33;100.00
8697;BME280;4385;48.848;8.924;2023-06-26T12:47:23;97446.50;;;26.35;100.00
8697;BME280;4385;48.848;8.924;2023-06-26T12:49:52;97443.81;;;26.37;100.00
8697;BME280;4385;48.848;8.924;2023-06-26T12:52:18;97438.47;;;26.40;100.00
8697;BME280;4385;48.848;8.924;2023-06-26T12:54:44;97442.72;;;26.41;100.00
8697;BME280;4385;48.848;8.924;2023-06-26T12:57:12;97448.66;;;26.43;100.00
8697;BME280;4385;48.848;8.924;2023-06-26T12:59:39;97435.56;;;26.46;100.00
8697;BME280;4385;48.848;8.924;2023-06-26T13:02:05;97439.78;;;26.47;100.00
8697;BME280;4385;48.848;8.924;2023-06-26T13:04:31;97439.72;;;26.49;100.00
8697;BME280;4385;48.848;8.924;2023-06-26T13:06:57;97437.22;;;26.47;100.00
8697;BME280;4385;48.848;8.924;2023-06-26T13:09:23;97437.13;;;26.49;100.00
8697;BME280;4385;48.848;8.924;2023-06-26T13:11:50;97431.13;;;26.48;100.00
8697;BME280;4385;48.848;8.924;2023-06-26T13:14:15;97432.81;;;26.49;100.00
8697;BME280;4385;48.848;8.924;2023-06-26T13:16:41;97428.53;;;26.48;100.00
8697;BME280;4385;48.848;8.924;2023-06-26T13:19:06;97433.69;;;26.48;100.00
8697;BME280;4385;48.848;8.924;2023-06-26T13:21:33;97422.47;;;26.49;100.00